createdAt,value
2023-03-04T00:00:43.353Z,82.57
2023-03-04T00:03:20.873Z,82.53
2023-03-04T00:05:49.576Z,82.50
2023-03-04T00:08:17.980Z,82.49
2023-03-04T00:10:47.027Z,82.48
2023-03-04T00:13:15.306Z,82.47
2023-03-04T00:15:42.995Z,82.46
2023-03-04T00:18:10.765Z,82.50
2023-03-04T00:20:38.509Z,82.54
2023-03-04T00:23:06.275Z,82.50
2023-03-04T00:25:34.037Z,82.44
2023-03-04T00:28:01.860Z,82.43
2023-03-04T00:30:29.695Z,82.45
2023-03-04T00:32:57.394Z,82.49
2023-03-04T00:35:25.117Z,82.44
2023-03-04T00:37:54.022Z,82.36
2023-03-04T00:40:21.711Z,82.34
2023-03-04T00:42:49.527Z,82.31
2023-03-04T00:45:17.496Z,82.34
2023-03-04T00:47:45.158Z,82.38
2023-03-04T00:50:12.930Z,82.40
2023-03-04T00:52:40.722Z,82.42
2023-03-04T00:55:09.027Z,82.46
2023-03-04T00:57:36.806Z,82.47
2023-03-04T01:00:05.582Z,82.43
2023-03-04T01:02:33.489Z,82.43
2023-03-04T01:05:01.363Z,82.48
2023-03-04T01:07:29.056Z,82.54
2023-03-04T01:09:56.960Z,82.58
2023-03-04T01:12:25.655Z,82.63
2023-03-04T01:14:53.326Z,82.65
2023-03-04T01:17:21.121Z,82.67
2023-03-04T01:19:49.123Z,82.70
2023-03-04T01:22:18.979Z,82.73
2023-03-04T01:24:48.776Z,82.72
2023-03-04T01:27:16.646Z,82.74
2023-03-04T01:29:44.742Z,82.69
2023-03-04T01:32:12.538Z,82.64
2023-03-04T01:34:40.902Z,82.57
2023-03-04T01:37:09.371Z,82.58
2023-03-04T01:39:37.044Z,82.58
2023-03-04T01:42:05.264Z,82.63
2023-03-04T01:44:33.265Z,82.69
2023-03-04T01:47:00.930Z,82.70
2023-03-04T01:49:28.641Z,82.75
2023-03-04T01:51:57.042Z,82.81
2023-03-04T01:54:24.715Z,82.86
2023-03-04T01:56:53.259Z,82.89
2023-03-04T01:59:26.089Z,82.94
2023-03-04T02:01:58.538Z,82.96
2023-03-04T02:04:31.364Z,82.97
2023-03-04T02:07:00.671Z,82.99
2023-03-04T02:09:29.759Z,83.00
2023-03-04T02:11:57.948Z,83.01
2023-03-04T02:14:26.187Z,83.10
2023-03-04T02:16:53.875Z,83.14
2023-03-04T02:20:00.819Z,83.21
2023-03-04T02:22:28.772Z,83.27
2023-03-04T02:25:04.051Z,83.38
2023-03-04T02:27:31.750Z,83.45
2023-03-04T02:29:59.414Z,83.47
2023-03-04T02:32:28.134Z,83.49
2023-03-04T02:34:56.552Z,83.52
2023-03-04T02:37:24.325Z,83.55
2023-03-04T02:39:53.865Z,83.62
2023-03-04T02:42:21.594Z,83.65
2023-03-04T02:44:50.446Z,83.67
2023-03-04T02:47:19.829Z,83.67
2023-03-04T02:49:47.886Z,83.69
2023-03-04T02:52:24.682Z,83.74
2023-03-04T02:54:52.538Z,83.73
2023-03-04T02:57:20.402Z,83.76
2023-03-04T02:59:52.343Z,83.76
2023-03-04T03:02:22.348Z,83.76
2023-03-04T03:04:50.079Z,83.76
2023-03-04T03:07:19.191Z,83.78
2023-03-04T03:09:47.081Z,83.86
2023-03-04T03:12:14.857Z,83.86
2023-03-04T03:14:42.629Z,83.82
2023-03-04T03:17:10.863Z,83.79
2023-03-04T03:19:38.551Z,83.76
2023-03-04T03:22:07.328Z,83.73
2023-03-04T03:24:35.226Z,83.74
2023-03-04T03:27:03.770Z,83.67
2023-03-04T03:29:31.848Z,83.57
2023-03-04T03:31:59.644Z,83.49
2023-03-04T03:34:27.404Z,83.42
2023-03-04T03:36:55.098Z,83.37
2023-03-04T03:39:22.729Z,83.33
2023-03-04T03:41:50.450Z,83.31
2023-03-04T03:44:18.184Z,83.30
2023-03-04T03:46:47.007Z,83.19
2023-03-04T03:49:14.829Z,83.12
2023-03-04T03:51:42.832Z,83.00
2023-03-04T03:54:10.505Z,82.93
2023-03-04T03:56:38.199Z,82.88
2023-03-04T03:59:05.878Z,82.83
2023-03-04T04:01:33.840Z,82.79
2023-03-04T04:04:01.517Z,82.72
2023-03-04T04:06:29.297Z,82.66
2023-03-04T04:08:57.041Z,82.65
2023-03-04T04:11:24.812Z,82.60
2023-03-04T04:13:52.485Z,82.55
2023-03-04T04:16:20.656Z,82.54
2023-03-04T04:18:48.582Z,82.56
2023-03-04T04:21:16.389Z,82.53
2023-03-04T04:23:44.076Z,82.49
2023-03-04T04:26:11.851Z,82.47
2023-03-04T04:28:39.589Z,82.45
2023-03-04T04:31:09.323Z,82.43
2023-03-04T04:33:37.331Z,82.43
2023-03-04T04:36:05.792Z,82.40
2023-03-04T04:38:33.453Z,82.41
2023-03-04T04:41:01.217Z,82.45
2023-03-04T04:43:28.875Z,82.48
2023-03-04T04:45:59.622Z,82.50
2023-03-04T04:48:27.317Z,82.46
2023-03-04T04:50:56.361Z,82.45
2023-03-04T04:53:24.162Z,82.47
2023-03-04T04:55:52.204Z,82.48
2023-03-04T04:58:19.908Z,82.49
2023-03-04T05:00:47.675Z,82.47
2023-03-04T05:03:17.518Z,82.48
2023-03-04T05:05:46.407Z,82.46
2023-03-04T05:08:14.106Z,82.42
2023-03-04T05:10:42.767Z,82.40
2023-03-04T05:13:10.486Z,82.40
2023-03-04T05:15:39.149Z,82.42
2023-03-04T05:18:06.905Z,82.45
2023-03-04T05:20:34.635Z,82.45
2023-03-04T05:23:02.496Z,82.42
2023-03-04T05:25:30.486Z,82.38
2023-03-04T05:27:58.141Z,82.41
2023-03-04T05:30:25.788Z,82.39
2023-03-04T05:32:53.499Z,82.35
2023-03-04T05:35:21.228Z,82.27
2023-03-04T05:37:48.972Z,82.20
2023-03-04T05:40:16.758Z,82.15
2023-03-04T05:42:45.430Z,82.05
2023-03-04T05:45:13.858Z,82.02
2023-03-04T05:47:41.605Z,81.93
2023-03-04T05:50:10.149Z,81.91
2023-03-04T05:52:37.835Z,81.85
2023-03-04T05:55:06.165Z,81.84
2023-03-04T05:57:33.914Z,81.80
2023-03-04T06:00:01.701Z,81.77
2023-03-04T06:02:29.401Z,81.72
2023-03-04T06:04:57.151Z,81.68
2023-03-04T06:07:24.797Z,81.62
2023-03-04T06:09:52.518Z,81.57
2023-03-04T06:12:20.218Z,81.52
2023-03-04T06:14:48.147Z,81.48
2023-03-04T06:17:16.289Z,81.45
2023-03-04T06:19:44.098Z,81.44
2023-03-04T06:22:12.185Z,81.42
2023-03-04T06:24:39.879Z,81.40
2023-03-04T06:27:07.649Z,81.40
2023-03-04T06:29:35.330Z,81.40
2023-03-04T06:32:04.130Z,81.38
2023-03-04T06:34:33.726Z,81.36
2023-03-04T06:37:01.449Z,81.35
2023-03-04T06:39:29.268Z,81.31
2023-03-04T06:41:56.981Z,81.27
2023-03-04T06:44:24.730Z,81.24
2023-03-04T06:46:52.499Z,81.24
2023-03-04T06:49:20.177Z,81.22
2023-03-04T06:51:47.955Z,81.23
2023-03-04T06:54:15.678Z,81.24
2023-03-04T06:56:43.365Z,81.26
2023-03-04T06:59:11.303Z,81.24
2023-03-04T07:01:39.114Z,81.22
2023-03-04T07:04:06.889Z,81.21
2023-03-04T07:06:34.840Z,81.14
2023-03-04T07:09:02.562Z,81.07
2023-03-04T07:11:30.224Z,81.02
2023-03-04T07:13:58.204Z,80.93
2023-03-04T07:16:25.950Z,80.86
2023-03-04T07:18:53.611Z,80.90
2023-03-04T07:21:21.354Z,80.84
2023-03-04T07:23:49.083Z,80.80
2023-03-04T07:26:17.481Z,80.76
2023-03-04T07:28:45.156Z,80.76
2023-03-04T07:31:23.300Z,80.73
2023-03-04T07:33:51.942Z,80.63
2023-03-04T07:36:20.107Z,80.60
2023-03-04T07:38:49.671Z,80.53
2023-03-04T07:41:18.408Z,80.46
2023-03-04T07:43:46.241Z,80.34
2023-03-04T07:46:14.337Z,80.27
2023-03-04T07:48:42.204Z,80.25
2023-03-04T07:51:15.587Z,80.22
2023-03-04T07:53:46.653Z,80.14
2023-03-04T07:56:18.853Z,80.05
2023-03-04T07:58:47.087Z,79.95
2023-03-04T08:01:21.177Z,79.87
2023-03-04T08:03:49.077Z,79.79
2023-03-04T08:06:19.448Z,79.75
2023-03-04T08:08:48.874Z,79.63
2023-03-04T08:11:19.938Z,79.52
2023-03-04T08:13:48.503Z,79.46
2023-03-04T08:16:19.223Z,79.41
2023-03-04T08:18:49.827Z,79.47
2023-03-04T08:35:23.292Z,79.27
2023-03-04T08:37:50.988Z,79.49
2023-03-04T08:40:18.984Z,79.38
2023-03-04T08:42:46.666Z,79.42
2023-03-04T08:45:14.490Z,79.34
2023-03-04T08:47:42.230Z,79.25
2023-03-04T08:50:10.748Z,79.26
2023-03-04T08:52:38.461Z,79.19
2023-03-04T08:55:06.686Z,79.17
2023-03-04T08:57:34.355Z,79.10
2023-03-04T09:00:02.103Z,79.14
2023-03-04T09:02:29.785Z,79.17
2023-03-04T09:04:57.491Z,79.20
2023-03-04T09:07:25.234Z,79.25
2023-03-04T09:09:52.952Z,79.26
2023-03-04T09:12:20.768Z,79.30
2023-03-04T09:14:55.553Z,79.32
2023-03-04T09:17:29.198Z,79.30
2023-03-04T09:19:56.935Z,79.34
2023-03-04T09:22:24.896Z,79.40
2023-03-04T09:24:52.553Z,79.39
2023-03-04T09:27:20.350Z,79.46
2023-03-04T09:29:48.159Z,79.42
2023-03-04T09:32:15.953Z,79.38
2023-03-04T09:34:43.710Z,79.31
2023-03-04T09:37:11.436Z,79.25
2023-03-04T09:39:39.542Z,79.23
2023-03-04T09:42:10.385Z,79.21
2023-03-04T09:44:41.397Z,79.18
2023-03-04T09:47:16.072Z,79.15
2023-03-04T09:49:56.348Z,79.06
2023-03-04T09:52:37.878Z,78.91
2023-03-04T09:55:13.325Z,78.83
2023-03-04T09:57:57.314Z,78.79
2023-03-04T10:00:34.753Z,78.70
2023-03-04T10:03:25.605Z,78.55
2023-03-04T10:06:04.766Z,78.48
2023-03-04T10:09:01.493Z,78.42
2023-03-04T10:11:59.590Z,78.30
2023-03-04T10:14:35.344Z,78.17
2023-03-04T10:17:06.615Z,78.06
2023-03-04T10:19:56.134Z,77.88
2023-03-04T10:22:33.142Z,77.78
2023-03-04T10:25:15.981Z,77.57
2023-03-04T10:27:50.527Z,77.36
2023-03-04T10:30:38.368Z,77.27
2023-03-04T10:33:22.303Z,77.17
2023-03-04T10:36:00.499Z,76.94
2023-03-04T10:38:34.699Z,76.70
2023-03-04T10:41:13.224Z,76.52
2023-03-04T10:43:46.690Z,76.54
2023-03-04T10:46:15.667Z,76.52
2023-03-04T10:48:44.848Z,76.47
2023-03-04T10:51:21.432Z,76.26
2023-03-04T10:53:52.996Z,76.15
2023-03-04T10:56:39.220Z,76.04
2023-03-04T10:59:25.738Z,75.80
2023-03-04T11:01:54.090Z,75.73
2023-03-04T11:04:27.090Z,75.68
2023-03-04T11:06:54.835Z,75.72
2023-03-04T11:09:28.553Z,75.76
2023-03-04T11:12:00.002Z,75.79
2023-03-04T11:14:34.701Z,75.73
2023-03-04T11:17:17.037Z,75.65
2023-03-04T11:19:50.045Z,75.57
2023-03-04T11:22:22.180Z,75.40
2023-03-04T11:24:59.622Z,75.22
2023-03-04T11:27:45.779Z,75.34
2023-03-04T11:30:25.723Z,75.46
2023-03-04T11:32:58.044Z,75.57
2023-03-04T11:35:33.073Z,76.02
2023-03-04T11:38:09.279Z,76.41
2023-03-04T11:40:43.361Z,76.62
2023-03-04T11:43:19.283Z,76.71
2023-03-04T11:45:49.695Z,76.75
2023-03-04T11:48:26.567Z,76.63
2023-03-04T11:51:01.618Z,76.43
2023-03-04T11:53:44.474Z,76.45
2023-03-04T11:56:12.403Z,76.52
2023-03-04T11:59:15.573Z,76.78
2023-03-04T12:02:11.208Z,77.03
2023-03-04T12:04:54.184Z,77.29
2023-03-04T12:07:43.675Z,77.60
2023-03-04T12:10:39.987Z,77.87
2023-03-04T12:13:38.481Z,78.00
2023-03-04T12:16:19.870Z,77.96
2023-03-04T12:19:06.561Z,78.03
2023-03-04T12:21:58.788Z,78.23
2023-03-04T12:24:49.080Z,78.20
2023-03-04T12:27:30.232Z,78.17
2023-03-04T12:30:26.810Z,78.25
2023-03-04T12:33:16.109Z,78.23
2023-03-04T12:35:58.725Z,78.19
2023-03-04T12:38:57.496Z,78.22
2023-03-04T12:41:43.394Z,78.24
2023-03-04T12:44:17.219Z,78.34
2023-03-04T12:47:06.917Z,78.37
2023-03-04T12:50:01.079Z,78.55
2023-03-04T12:52:31.525Z,79.09
2023-03-04T12:55:04.143Z,79.65
2023-03-04T12:57:33.339Z,80.21
2023-03-04T13:00:13.165Z,80.78
2023-03-04T13:03:10.362Z,81.97
2023-03-04T13:06:03.878Z,82.35
2023-03-04T13:08:42.608Z,82.67
2023-03-04T13:11:29.033Z,82.85
2023-03-04T13:14:23.296Z,82.99
2023-03-04T13:16:57.385Z,83.23
2023-03-04T13:19:47.050Z,83.50
2023-03-04T13:22:33.366Z,83.61
2023-03-04T13:25:29.108Z,83.73
2023-03-04T13:28:05.679Z,83.78
2023-03-04T13:30:37.010Z,83.58
2023-03-04T13:33:16.417Z,83.57
2023-03-04T13:35:47.298Z,83.61
2023-03-04T13:38:34.869Z,83.90
2023-03-04T13:41:47.075Z,84.22
2023-03-04T13:44:33.199Z,84.66
2023-03-04T13:47:18.718Z,84.82
2023-03-04T13:49:46.665Z,84.89
2023-03-04T13:52:53.457Z,85.10
2023-03-04T13:55:36.135Z,85.01
2023-03-04T13:58:27.071Z,84.82
2023-03-04T14:00:55.973Z,84.77
2023-03-04T14:03:29.824Z,84.73
2023-03-04T14:06:18.380Z,84.72
2023-03-04T14:08:47.558Z,84.55
2023-03-04T14:11:38.698Z,84.46
2023-03-04T14:14:08.871Z,84.26
2023-03-04T14:16:40.867Z,84.10
2023-03-04T14:19:17.059Z,83.93
2023-03-04T14:21:47.160Z,83.74
2023-03-04T14:24:18.471Z,83.57
2023-03-04T14:26:47.241Z,83.42
2023-03-04T14:29:25.302Z,83.23
2023-03-04T14:31:54.443Z,83.09
2023-03-04T14:34:36.485Z,82.95
2023-03-04T14:37:19.516Z,82.90
2023-03-04T14:39:51.339Z,82.73
2023-03-04T14:42:21.677Z,82.75
2023-03-04T14:44:51.241Z,82.83
2023-03-04T14:47:34.881Z,82.82
2023-03-04T14:50:06.245Z,82.71
2023-03-04T14:52:38.486Z,82.67
2023-03-04T14:55:15.195Z,82.51
2023-03-04T14:57:44.658Z,82.31
2023-03-04T15:00:27.213Z,82.24
2023-03-04T15:02:57.595Z,82.16
2023-03-04T15:05:36.382Z,82.12
2023-03-04T15:08:15.586Z,82.03
2023-03-04T15:10:43.471Z,82.00
2023-03-04T15:13:12.162Z,82.06
2023-03-04T15:15:45.212Z,82.00
2023-03-04T15:18:26.419Z,82.00
2023-03-04T15:20:55.621Z,81.97
2023-03-04T15:23:23.540Z,81.98
2023-03-04T15:25:54.204Z,82.01
2023-03-04T15:28:22.545Z,82.09
2023-03-04T15:30:50.779Z,82.13
2023-03-04T15:33:21.142Z,81.38
2023-03-04T15:36:00.766Z,79.24
2023-03-04T15:38:29.352Z,76.36
2023-03-04T15:40:59.482Z,73.82
2023-03-04T15:43:29.894Z,73.05
2023-03-04T15:45:57.598Z,70.33
2023-03-04T15:48:25.281Z,68.17
2023-03-04T15:51:03.706Z,65.57
2023-03-04T15:53:35.661Z,64.63
2023-03-04T15:56:05.145Z,63.28
2023-03-04T15:58:35.052Z,62.60
2023-03-04T16:01:03.357Z,60.98
2023-03-04T16:03:31.189Z,58.95
2023-03-04T16:05:58.992Z,56.93
2023-03-04T16:08:26.785Z,54.50
2023-03-04T16:10:54.832Z,53.79
2023-03-04T16:13:24.114Z,53.14
2023-03-04T16:15:52.112Z,53.91
2023-03-04T16:18:20.284Z,54.50
2023-03-04T16:20:49.798Z,53.60
2023-03-04T16:23:23.512Z,54.48
2023-03-04T16:25:55.868Z,54.94
2023-03-04T16:28:23.834Z,54.55
2023-03-04T16:30:51.703Z,55.09
2023-03-04T16:33:19.705Z,55.31
2023-03-04T16:35:47.678Z,55.70
2023-03-04T16:38:26.094Z,55.89
2023-03-04T16:40:58.602Z,55.84
2023-03-04T16:43:26.545Z,55.02
2023-03-04T16:45:54.874Z,54.30
2023-03-04T16:48:22.738Z,54.66
2023-03-04T16:50:50.589Z,54.86
2023-03-04T16:53:27.912Z,54.15
2023-03-04T16:55:58.426Z,54.25
2023-03-04T16:58:26.285Z,54.67
2023-03-04T17:00:54.803Z,53.80
2023-03-04T17:03:22.704Z,53.32
2023-03-04T17:05:50.357Z,52.37
2023-03-04T17:08:18.156Z,52.39
2023-03-04T17:10:46.148Z,52.65
2023-03-04T17:13:13.871Z,53.40
2023-03-04T17:15:45.536Z,53.64
2023-03-04T17:18:13.356Z,52.89
2023-03-04T17:20:41.126Z,52.42
2023-03-04T17:23:09.299Z,52.73
2023-03-04T17:25:37.169Z,52.53
2023-03-04T17:28:05.132Z,52.02
2023-03-04T17:30:32.892Z,51.75
2023-03-04T17:33:00.623Z,51.82
2023-03-04T17:35:28.410Z,52.20
2023-03-04T17:37:56.564Z,52.66
2023-03-04T17:40:24.467Z,51.91
2023-03-04T17:42:52.259Z,51.26
2023-03-04T17:45:19.961Z,51.53
2023-03-04T17:47:47.649Z,51.66
2023-03-04T17:50:15.426Z,51.68
2023-03-04T17:52:43.212Z,51.87
2023-03-04T17:55:11.279Z,51.23
2023-03-04T17:57:39.004Z,50.95
2023-03-04T18:00:07.410Z,51.03
2023-03-04T18:02:35.459Z,51.13
2023-03-04T18:05:06.691Z,51.46
2023-03-04T18:07:34.412Z,51.51
2023-03-04T18:10:02.322Z,51.45
2023-03-04T18:12:30.107Z,51.38
2023-03-04T18:14:57.894Z,51.44
2023-03-04T18:17:26.608Z,51.73
2023-03-04T18:19:55.177Z,52.06
2023-03-04T18:22:22.868Z,52.41
2023-03-04T18:24:50.663Z,52.43
2023-03-04T18:27:18.505Z,52.45
2023-03-04T18:29:47.299Z,52.27
2023-03-04T18:32:15.063Z,51.97
2023-03-04T18:34:43.390Z,52.06
2023-03-04T18:37:11.101Z,51.67
2023-03-04T18:39:38.906Z,51.91
2023-03-04T18:42:06.627Z,51.94
2023-03-04T18:44:34.395Z,51.48
2023-03-04T18:47:03.127Z,51.10
2023-03-04T18:49:30.909Z,51.17
2023-03-04T18:51:58.628Z,50.88
2023-03-04T18:54:26.563Z,50.27
2023-03-04T18:57:01.920Z,50.77
2023-03-04T18:59:46.318Z,50.51
2023-03-04T19:02:22.209Z,50.01
2023-03-04T19:04:50.923Z,50.12
2023-03-04T19:07:18.716Z,49.79
2023-03-04T19:09:46.471Z,49.84
2023-03-04T19:12:14.163Z,50.06
2023-03-04T19:14:41.891Z,50.08
2023-03-04T19:17:09.835Z,50.29
2023-03-04T19:19:37.581Z,50.42
2023-03-04T19:22:06.760Z,50.43
2023-03-04T19:24:35.110Z,50.34
2023-03-04T19:27:02.934Z,50.07
2023-03-04T19:29:30.975Z,50.17
2023-03-04T19:31:58.737Z,50.06
2023-03-04T19:34:26.633Z,50.16
2023-03-04T19:36:54.369Z,50.33
2023-03-04T19:39:22.184Z,49.90
2023-03-04T19:41:50.089Z,49.58
2023-03-04T19:44:18.570Z,49.54
2023-03-04T19:46:46.415Z,49.81
2023-03-04T19:49:14.090Z,49.77
2023-03-04T19:51:42.721Z,49.94
2023-03-04T19:54:10.925Z,50.19
2023-03-04T19:56:38.819Z,50.21
2023-03-04T19:59:06.633Z,49.91
2023-03-04T20:01:37.244Z,49.98
2023-03-04T20:04:10.662Z,50.04
2023-03-04T20:06:41.770Z,50.34
2023-03-04T20:09:10.252Z,50.55
2023-03-04T20:11:50.850Z,50.56
2023-03-04T20:14:24.213Z,50.28
2023-03-04T20:16:52.139Z,50.49
2023-03-04T20:19:20.062Z,50.73
2023-03-04T20:21:47.994Z,50.93
2023-03-04T20:24:15.898Z,51.12
2023-03-04T20:26:43.674Z,51.19
2023-03-04T20:29:11.865Z,51.40
2023-03-04T20:31:39.617Z,51.56
2023-03-04T20:34:09.647Z,51.37
2023-03-04T20:36:39.380Z,51.58
2023-03-04T20:39:25.846Z,51.89
2023-03-04T20:41:59.773Z,52.09
2023-03-04T20:44:28.006Z,52.30
2023-03-04T20:46:55.852Z,52.54
2023-03-04T20:49:27.299Z,52.79
2023-03-04T20:52:06.138Z,52.64
2023-03-04T20:54:34.994Z,52.77
2023-03-04T20:57:06.750Z,53.16
2023-03-04T20:59:37.882Z,53.44
2023-03-04T21:02:08.415Z,53.68
2023-03-04T21:04:36.162Z,54.02
2023-03-04T21:07:04.199Z,54.04
2023-03-04T21:09:32.045Z,53.95
2023-03-04T21:12:01.099Z,54.10
2023-03-04T21:14:31.027Z,54.19
2023-03-04T21:17:02.528Z,54.09
2023-03-04T21:19:33.186Z,54.39
2023-03-04T21:22:01.544Z,54.48
2023-03-04T21:24:35.625Z,54.48
2023-03-04T21:27:04.563Z,54.53
2023-03-04T21:29:32.792Z,54.67
2023-03-04T21:32:20.918Z,54.73
2023-03-04T21:34:52.589Z,54.81
2023-03-04T21:37:21.651Z,54.70
2023-03-04T21:39:49.514Z,54.98
2023-03-04T21:42:17.789Z,54.98
2023-03-04T21:44:50.486Z,55.18
2023-03-04T21:47:22.032Z,55.35
2023-03-04T21:49:50.708Z,55.34
2023-03-04T21:52:20.301Z,55.76
2023-03-04T21:54:48.636Z,55.72
2023-03-04T21:57:17.055Z,55.88
2023-03-04T21:59:45.265Z,56.29
2023-03-04T22:02:18.816Z,56.35
2023-03-04T22:04:47.478Z,56.37
2023-03-04T22:07:15.569Z,56.36
2023-03-04T22:09:43.308Z,56.51
2023-03-04T22:12:11.735Z,56.97
2023-03-04T22:14:39.414Z,57.16
2023-03-04T22:17:07.235Z,57.23
2023-03-04T22:19:35.116Z,57.36
2023-03-04T22:22:02.820Z,57.46
2023-03-04T22:24:30.633Z,57.55
2023-03-04T22:26:59.843Z,57.68
2023-03-04T22:29:27.756Z,57.82
2023-03-04T22:31:55.614Z,57.99
2023-03-04T22:34:23.855Z,58.32
2023-03-04T22:36:52.054Z,58.73
2023-03-04T22:39:20.203Z,58.97
2023-03-04T22:41:48.326Z,59.13
2023-03-04T22:44:16.050Z,59.32
2023-03-04T22:46:44.534Z,59.51
2023-03-04T22:49:13.993Z,59.68
2023-03-04T22:51:43.918Z,59.76
2023-03-04T22:54:12.812Z,59.99
2023-03-04T22:56:40.692Z,59.84
2023-03-04T22:59:08.412Z,60.33
2023-03-04T23:01:37.108Z,60.69
2023-03-04T23:04:05.049Z,60.89
2023-03-04T23:06:32.838Z,60.96
2023-03-04T23:09:01.215Z,61.01
2023-03-04T23:11:31.416Z,61.09
2023-03-04T23:14:02.054Z,61.35
2023-03-04T23:16:29.911Z,61.64
2023-03-04T23:18:59.411Z,61.92
2023-03-04T23:35:04.265Z,61.64
2023-03-04T23:37:32.032Z,62.00
2023-03-04T23:39:59.732Z,62.12
2023-03-04T23:42:27.441Z,62.11
2023-03-04T23:44:55.174Z,62.29
2023-03-04T23:47:22.957Z,63.42
2023-03-04T23:49:50.654Z,64.35
2023-03-04T23:52:18.352Z,63.84
2023-03-04T23:54:46.036Z,63.55
2023-03-04T23:57:13.802Z,63.52
2023-03-04T23:59:41.585Z,63.55
